Main page
METAR-TAF:

METAR-TAF

Airports :

Mariehamn Airport

Mariehamn, Finland

latitude: 60-07N, longitude: 019-54E, elevation: 6 m

Current weather observation

The report was made 42 minutes ago, at 22:50 UTC
Wind 8 kt from the Northeast, varying between North/Northeast and East
Temperature -9°C
Humidity 85%
Pressure 1014 hPa
Visibility 10 km or more
Overcast at a height of 900 ft
light snow showers

METAR: EFMA 042250Z AUTO 05008KT 020V090 9999 -SHSN OVC009 M09/M11 Q1014

Time: 01:32 (23:32 UTC)

Forecast

The report was made 36 minutes ago, at 22:56 UTC
Forecast valid from 04 at 22 UTC to 05 at 06 UTC
Wind 8 kt from the Northeast
Visibility 10 km or more
Overcast at a height of 900 ft
Temporary
from 04 at 22 UTC to 05 at 06 UTC
Broken clouds at a height of 1500 ft

TAF: EFMA 042256Z 0422/0506 05008KT 9999 OVC009 TEMPO 0422/0506 BKN015

Weather observations and forecasts of more than 4000 airports (METAR and TAF reports).

The available stations are represented by yellow and red dots on the map.

Hover mouse over dot to see the name of the station.

Then click to see weather observations and forecasts.

To change the map : click on the green buttons with a black cross to zoom in, on the green button with a dash to zoom out, or on the green arrows for adjacent maps.


METAR-TAF: